Gulden Leeuw — PCBH — position and weather

sailwx.info

Track history (hours):
 
Tides and Currents Weather Stations Pressure Air Temp Water Temp Dewpoint Dewpoint Depression Visibility Wind Speed Wind Dir Waves Ship Positions

Gulden Leeuw

Last reported at 2019-Oct-18 22:43 UTC. Time now 2019-Oct-22 23:45 UTC.
Position N 41°24' E 008°21'.

Length 57 m; draft 4.2 m.

Type: Sailing vessel. MMSI: 246709000.

Date/timePositionNaut miles runAvg speedWind from/ knotsBaromVisibWave heightAir tempDewpointWater temp
2019-Oct-18 22:43N 41°24' E 008°21'7 6.6
2019-Oct-18 21:42N 41°29' E 008°27'1 6.6
2019-Oct-18 21:29N 41°31' E 008°28'3 6.7
2019-Oct-18 21:01N 41°33' E 008°29'4 6.9
2019-Oct-18 20:28N 41°37' E 008°31'3 7.1
2019-Oct-18 20:00N 41°40' E 008°33'4 7.1
2019-Oct-18 19:30N 41°43' E 008°35'4 7.0
2019-Oct-18 18:53N 41°47' E 008°38'  
2019-Oct-14 11:01N 41°49' E 008°41'0 6.7
2019-Oct-14 11:00N 41°49' E 008°41'8 4.8
2019-Oct-14 09:25N 41°42' E 008°38'64 3.1
2019-Oct-13 12:58N 41°37' E 010°04'  
Track history (hours):
 
Tides and Currents Weather Stations Pressure Air Temp Water Temp Dewpoint Dewpoint Depression Visibility Wind Speed Wind Dir Waves Ship Positions

Gulden Leeuw

Last reported at 2019-Oct-18 22:43 UTC. Time now 2019-Oct-22 23:45 UTC.
Position N 41°24' E 008°21'.

Length 57 m; draft 4.2 m.

Type: Sailing vessel. MMSI: 246709000.

Date/timePositionNaut miles runAvg speedWind from/ knotsBaromVisibWave heightAir tempDewpointWater temp
2019-Oct-18 22:43N 41°24' E 008°21'7 6.6
2019-Oct-18 21:42N 41°29' E 008°27'1 6.6
2019-Oct-18 21:29N 41°31' E 008°28'3 6.7
2019-Oct-18 21:01N 41°33' E 008°29'4 6.9
2019-Oct-18 20:28N 41°37' E 008°31'3 7.1
2019-Oct-18 20:00N 41°40' E 008°33'4 7.1
2019-Oct-18 19:30N 41°43' E 008°35'4 7.0
2019-Oct-18 18:53N 41°47' E 008°38'  
2019-Oct-14 11:01N 41°49' E 008°41'0 6.7
2019-Oct-14 11:00N 41°49' E 008°41'8 4.8
2019-Oct-14 09:25N 41°42' E 008°38'64 3.1
2019-Oct-13 12:58N 41°37' E 010°04'  

Dump ship's entire track history